sensor_id;sensor_type;location;lat;lon;timestamp;pressure;altitude;pressure_sealevel;temperature;humidity
9672;BME280;4874;43.568;27.824;2023-03-15T00:02:00;98207.25;;;4.45;100.00
9672;BME280;4874;43.568;27.824;2023-03-15T00:04:27;98232.31;;;4.80;100.00
9672;BME280;4874;43.568;27.824;2023-03-15T00:06:54;98223.78;;;4.67;100.00
9672;BME280;4874;43.568;27.824;2023-03-15T00:09:21;98221.88;;;4.90;100.00
9672;BME280;4874;43.568;27.824;2023-03-15T00:11:51;98223.50;;;5.02;100.00
9672;BME280;4874;43.568;27.824;2023-03-15T00:14:20;98218.22;;;4.82;100.00
9672;BME280;4874;43.568;27.824;2023-03-15T00:16:47;98203.00;;;4.85;100.00
9672;BME280;4874;43.568;27.824;2023-03-15T00:19:14;98205.44;;;4.98;100.00
9672;BME280;4874;43.568;27.824;2023-03-15T00:21:40;98196.19;;;4.62;100.00
9672;BME280;4874;43.568;27.824;2023-03-15T00:24:09;98201.34;;;4.84;100.00
9672;BME280;4874;43.568;27.824;2023-03-15T00:26:37;98190.25;;;5.22;100.00
9672;BME280;4874;43.568;27.824;2023-03-15T00:29:04;98187.00;;;5.09;100.00
9672;BME280;4874;43.568;27.824;2023-03-15T00:31:31;98192.69;;;5.14;100.00
9672;BME280;4874;43.568;27.824;2023-03-15T00:33:58;98176.06;;;5.13;100.00
9672;BME280;4874;43.568;27.824;2023-03-15T00:36:24;98189.19;;;5.04;100.00
9672;BME280;4874;43.568;27.824;2023-03-15T00:38:52;98092.63;;;4.12;100.00
9672;BME280;4874;43.568;27.824;2023-03-15T00:41:21;98178.84;;;4.39;100.00
9672;BME280;4874;43.568;27.824;2023-03-15T00:43:49;98179.34;;;4.33;100.00
9672;BME280;4874;43.568;27.824;2023-03-15T00:46:17;98159.91;;;4.24;100.00
9672;BME280;4874;43.568;27.824;2023-03-15T00:48:49;98168.13;;;4.62;100.00
9672;BME280;4874;43.568;27.824;2023-03-15T00:51:19;98144.66;;;4.50;100.00
9672;BME280;4874;43.568;27.824;2023-03-15T00:53:48;98157.84;;;4.59;100.00
9672;BME280;4874;43.568;27.824;2023-03-15T00:56:17;98143.81;;;4.49;100.00
9672;BME280;4874;43.568;27.824;2023-03-15T00:58:45;98143.59;;;4.94;100.00
9672;BME280;4874;43.568;27.824;2023-03-15T01:01:21;98143.28;;;5.17;100.00
9672;BME280;4874;43.568;27.824;2023-03-15T01:03:49;98132.66;;;5.28;100.00
9672;BME280;4874;43.568;27.824;2023-03-15T01:06:18;98128.41;;;5.07;100.00
9672;BME280;4874;43.568;27.824;2023-03-15T01:08:46;98116.72;;;5.20;100.00
9672;BME280;4874;43.568;27.824;2023-03-15T01:11:19;98099.84;;;5.23;100.00
9672;BME280;4874;43.568;27.824;2023-03-15T01:13:46;98122.50;;;5.14;100.00
9672;BME280;4874;43.568;27.824;2023-03-15T01:16:13;98109.03;;;5.08;100.00
9672;BME280;4874;43.568;27.824;2023-03-15T01:18:41;98111.03;;;5.25;100.00
9672;BME280;4874;43.568;27.824;2023-03-15T01:21:10;98106.53;;;5.36;100.00
9672;BME280;4874;43.568;27.824;2023-03-15T01:23:38;98097.06;;;4.94;100.00
9672;BME280;4874;43.568;27.824;2023-03-15T01:26:05;98102.19;;;4.96;100.00
9672;BME280;4874;43.568;27.824;2023-03-15T01:28:32;98101.28;;;5.06;100.00
9672;BME280;4874;43.568;27.824;2023-03-15T01:30:59;98102.31;;;4.94;100.00
9672;BME280;4874;43.568;27.824;2023-03-15T01:33:26;98090.53;;;4.89;100.00
9672;BME280;4874;43.568;27.824;2023-03-15T01:36:01;98102.44;;;4.93;100.00
9672;BME280;4874;43.568;27.824;2023-03-15T01:38:29;98110.03;;;4.86;100.00
9672;BME280;4874;43.568;27.824;2023-03-15T01:40:56;98102.22;;;4.75;100.00
9672;BME280;4874;43.568;27.824;2023-03-15T01:43:28;98099.41;;;4.46;100.00
9672;BME280;4874;43.568;27.824;2023-03-15T01:50:57;98088.25;;;4.54;100.00
9672;BME280;4874;43.568;27.824;2023-03-15T01:53:26;98094.16;;;4.46;100.00
9672;BME280;4874;43.568;27.824;2023-03-15T01:55:54;98086.38;;;4.24;100.00
9672;BME280;4874;43.568;27.824;2023-03-15T01:58:21;98083.88;;;4.23;100.00
9672;BME280;4874;43.568;27.824;2023-03-15T02:00:51;98089.25;;;4.21;100.00
9672;BME280;4874;43.568;27.824;2023-03-15T02:03:29;98095.63;;;3.76;100.00
9672;BME280;4874;43.568;27.824;2023-03-15T02:06:01;98103.88;;;4.03;100.00
9672;BME280;4874;43.568;27.824;2023-03-15T02:08:36;98103.06;;;4.03;100.00
9672;BME280;4874;43.568;27.824;2023-03-15T02:11:04;98105.47;;;3.95;100.00
9672;BME280;4874;43.568;27.824;2023-03-15T02:13:32;98085.56;;;3.92;100.00
9672;BME280;4874;43.568;27.824;2023-03-15T02:16:00;98066.28;;;3.71;100.00
9672;BME280;4874;43.568;27.824;2023-03-15T02:18:32;98078.03;;;3.88;100.00
9672;BME280;4874;43.568;27.824;2023-03-15T02:23:35;98068.38;;;3.88;100.00
9672;BME280;4874;43.568;27.824;2023-03-15T02:26:17;98074.72;;;3.86;100.00
9672;BME280;4874;43.568;27.824;2023-03-15T02:28:46;98072.09;;;3.86;100.00
9672;BME280;4874;43.568;27.824;2023-03-15T02:31:13;98079.34;;;3.93;100.00
9672;BME280;4874;43.568;27.824;2023-03-15T02:33:43;98047.66;;;3.74;100.00
9672;BME280;4874;43.568;27.824;2023-03-15T02:36:25;98073.22;;;4.04;100.00
9672;BME280;4874;43.568;27.824;2023-03-15T02:38:53;98071.00;;;3.88;100.00
9672;BME280;4874;43.568;27.824;2023-03-15T02:41:31;98075.47;;;3.77;100.00
9672;BME280;4874;43.568;27.824;2023-03-15T02:44:06;98073.66;;;3.77;100.00
9672;BME280;4874;43.568;27.824;2023-03-15T02:46:34;98072.56;;;3.91;100.00
9672;BME280;4874;43.568;27.824;2023-03-15T02:49:02;98080.91;;;3.96;100.00
9672;BME280;4874;43.568;27.824;2023-03-15T02:51:32;98065.97;;;3.96;100.00
9672;BME280;4874;43.568;27.824;2023-03-15T02:53:59;98031.06;;;3.85;100.00
9672;BME280;4874;43.568;27.824;2023-03-15T02:56:26;98062.28;;;4.19;100.00
9672;BME280;4874;43.568;27.824;2023-03-15T02:58:52;98073.41;;;4.12;100.00
9672;BME280;4874;43.568;27.824;2023-03-15T03:01:19;98072.41;;;4.24;100.00
9672;BME280;4874;43.568;27.824;2023-03-15T03:03:46;98070.50;;;4.26;100.00
9672;BME280;4874;43.568;27.824;2023-03-15T03:06:14;98072.63;;;4.32;100.00
9672;BME280;4874;43.568;27.824;2023-03-15T03:08:42;98060.69;;;4.28;100.00
9672;BME280;4874;43.568;27.824;2023-03-15T03:11:13;98081.75;;;4.37;100.00
9672;BME280;4874;43.568;27.824;2023-03-15T03:13:41;98083.81;;;4.34;100.00
9672;BME280;4874;43.568;27.824;2023-03-15T03:16:08;98076.72;;;4.45;100.00
9672;BME280;4874;43.568;27.824;2023-03-15T03:18:35;98036.88;;;4.20;100.00
9672;BME280;4874;43.568;27.824;2023-03-15T03:21:04;98046.22;;;4.33;100.00
9672;BME280;4874;43.568;27.824;2023-03-15T03:23:33;98063.59;;;4.45;100.00
9672;BME280;4874;43.568;27.824;2023-03-15T03:26:00;98068.63;;;4.58;100.00
9672;BME280;4874;43.568;27.824;2023-03-15T03:28:29;98069.47;;;4.89;100.00
9672;BME280;4874;43.568;27.824;2023-03-15T03:30:56;98071.50;;;4.75;100.00
9672;BME280;4874;43.568;27.824;2023-03-15T03:33:24;98061.72;;;4.87;100.00
9672;BME280;4874;43.568;27.824;2023-03-15T03:35:50;98063.94;;;4.61;100.00
9672;BME280;4874;43.568;27.824;2023-03-15T03:38:17;98032.94;;;4.55;100.00
9672;BME280;4874;43.568;27.824;2023-03-15T03:40:44;98059.16;;;4.97;100.00
9672;BME280;4874;43.568;27.824;2023-03-15T03:43:11;98061.38;;;5.01;100.00
9672;BME280;4874;43.568;27.824;2023-03-15T03:45:37;98067.00;;;5.17;100.00
9672;BME280;4874;43.568;27.824;2023-03-15T03:48:04;98060.91;;;5.26;100.00
9672;BME280;4874;43.568;27.824;2023-03-15T03:50:31;98057.97;;;4.80;100.00
9672;BME280;4874;43.568;27.824;2023-03-15T03:52:57;98062.22;;;5.02;100.00
9672;BME280;4874;43.568;27.824;2023-03-15T03:55:24;98061.22;;;4.93;100.00
9672;BME280;4874;43.568;27.824;2023-03-15T03:57:51;98072.81;;;4.91;100.00
9672;BME280;4874;43.568;27.824;2023-03-15T04:00:20;98069.41;;;5.00;100.00
9672;BME280;4874;43.568;27.824;2023-03-15T04:02:47;98066.38;;;5.04;100.00
9672;BME280;4874;43.568;27.824;2023-03-15T04:05:14;98051.63;;;4.82;100.00
9672;BME280;4874;43.568;27.824;2023-03-15T04:07:41;98068.53;;;4.90;100.00
9672;BME280;4874;43.568;27.824;2023-03-15T04:10:08;98061.94;;;4.95;100.00
9672;BME280;4874;43.568;27.824;2023-03-15T04:12:43;98051.31;;;4.76;100.00
9672;BME280;4874;43.568;27.824;2023-03-15T04:15:10;98056.63;;;5.16;100.00
9672;BME280;4874;43.568;27.824;2023-03-15T04:17:37;98056.50;;;5.27;100.00
9672;BME280;4874;43.568;27.824;2023-03-15T04:20:05;97969.91;;;4.95;100.00
9672;BME280;4874;43.568;27.824;2023-03-15T04:22:34;98058.63;;;5.33;100.00
9672;BME280;4874;43.568;27.824;2023-03-15T04:25:00;98058.56;;;5.23;100.00
9672;BME280;4874;43.568;27.824;2023-03-15T04:27:28;98059.53;;;5.22;100.00
9672;BME280;4874;43.568;27.824;2023-03-15T04:29:55;98017.69;;;5.10;100.00
9672;BME280;4874;43.568;27.824;2023-03-15T04:32:22;97970.97;;;4.83;100.00
9672;BME280;4874;43.568;27.824;2023-03-15T04:34:49;98052.13;;;5.46;100.00
9672;BME280;4874;43.568;27.824;2023-03-15T04:37:21;98050.44;;;5.36;100.00
9672;BME280;4874;43.568;27.824;2023-03-15T04:39:48;98052.69;;;5.50;100.00
9672;BME280;4874;43.568;27.824;2023-03-15T04:42:14;98048.28;;;5.60;100.00
9672;BME280;4874;43.568;27.824;2023-03-15T04:44:41;98049.78;;;5.53;100.00
9672;BME280;4874;43.568;27.824;2023-03-15T04:47:08;98035.78;;;5.52;100.00
9672;BME280;4874;43.568;27.824;2023-03-15T04:49:35;98048.84;;;5.63;100.00
9672;BME280;4874;43.568;27.824;2023-03-15T04:52:01;98057.84;;;5.61;100.00
9672;BME280;4874;43.568;27.824;2023-03-15T04:54:28;98060.09;;;5.65;100.00
9672;BME280;4874;43.568;27.824;2023-03-15T04:56:55;98064.41;;;5.95;100.00
9672;BME280;4874;43.568;27.824;2023-03-15T04:59:22;98059.38;;;5.73;100.00
9672;BME280;4874;43.568;27.824;2023-03-15T05:01:48;98053.97;;;5.74;100.00
9672;BME280;4874;43.568;27.824;2023-03-15T05:04:15;98048.84;;;5.73;100.00
9672;BME280;4874;43.568;27.824;2023-03-15T05:06:42;98055.09;;;5.72;100.00
9672;BME280;4874;43.568;27.824;2023-03-15T05:09:08;98055.19;;;5.61;100.00
9672;BME280;4874;43.568;27.824;2023-03-15T05:11:44;98052.84;;;5.67;100.00
9672;BME280;4874;43.568;27.824;2023-03-15T05:14:12;98055.53;;;5.77;100.00
9672;BME280;4874;43.568;27.824;2023-03-15T05:16:39;98056.53;;;5.85;100.00
9672;BME280;4874;43.568;27.824;2023-03-15T05:19:07;98006.44;;;5.57;100.00
9672;BME280;4874;43.568;27.824;2023-03-15T05:21:34;98051.41;;;5.93;100.00
9672;BME280;4874;43.568;27.824;2023-03-15T05:24:00;98044.50;;;6.12;100.00
9672;BME280;4874;43.568;27.824;2023-03-15T05:26:27;98036.16;;;6.07;100.00
9672;BME280;4874;43.568;27.824;2023-03-15T05:28:54;98042.94;;;6.28;100.00
9672;BME280;4874;43.568;27.824;2023-03-15T05:31:20;98036.69;;;6.29;100.00
9672;BME280;4874;43.568;27.824;2023-03-15T05:33:47;98036.13;;;6.54;100.00
9672;BME280;4874;43.568;27.824;2023-03-15T05:36:14;98036.66;;;6.58;100.00
9672;BME280;4874;43.568;27.824;2023-03-15T05:38:41;98033.06;;;6.49;100.00
9672;BME280;4874;43.568;27.824;2023-03-15T05:41:10;98037.88;;;6.63;100.00
9672;BME280;4874;43.568;27.824;2023-03-15T05:43:37;98025.91;;;6.78;100.00
9672;BME280;4874;43.568;27.824;2023-03-15T05:46:04;98020.50;;;6.70;100.00
9672;BME280;4874;43.568;27.824;2023-03-15T05:48:30;98025.44;;;6.92;100.00
9672;BME280;4874;43.568;27.824;2023-03-15T05:50:57;98015.41;;;7.33;100.00
9672;BME280;4874;43.568;27.824;2023-03-15T05:53:24;98003.69;;;7.18;100.00
9672;BME280;4874;43.568;27.824;2023-03-15T05:55:51;98015.88;;;7.18;100.00
9672;BME280;4874;43.568;27.824;2023-03-15T05:58:17;98021.56;;;7.51;100.00
9672;BME280;4874;43.568;27.824;2023-03-15T06:00:44;98014.66;;;7.85;100.00
9672;BME280;4874;43.568;27.824;2023-03-15T06:03:11;98000.69;;;8.27;100.00
9672;BME280;4874;43.568;27.824;2023-03-15T06:05:38;97982.25;;;8.61;100.00
9672;BME280;4874;43.568;27.824;2023-03-15T06:08:05;97993.81;;;8.35;100.00
9672;BME280;4874;43.568;27.824;2023-03-15T06:10:31;97959.72;;;8.57;100.00
9672;BME280;4874;43.568;27.824;2023-03-15T06:12:59;97975.84;;;9.47;100.00
9672;BME280;4874;43.568;27.824;2023-03-15T06:15:26;97970.44;;;9.73;100.00
9672;BME280;4874;43.568;27.824;2023-03-15T06:17:52;97978.16;;;9.42;100.00
9672;BME280;4874;43.568;27.824;2023-03-15T06:20:19;97970.44;;;9.15;100.00
9672;BME280;4874;43.568;27.824;2023-03-15T06:22:46;97973.34;;;9.37;100.00
9672;BME280;4874;43.568;27.824;2023-03-15T06:25:15;97966.56;;;9.43;100.00
9672;BME280;4874;43.568;27.824;2023-03-15T06:27:42;97944.91;;;9.56;100.00
9672;BME280;4874;43.568;27.824;2023-03-15T06:30:09;97974.47;;;10.09;100.00
9672;BME280;4874;43.568;27.824;2023-03-15T06:32:36;97963.50;;;9.72;100.00
9672;BME280;4874;43.568;27.824;2023-03-15T06:35:03;97956.22;;;10.46;100.00
9672;BME280;4874;43.568;27.824;2023-03-15T06:37:30;97957.56;;;9.28;100.00
9672;BME280;4874;43.568;27.824;2023-03-15T06:40:10;97961.09;;;9.44;100.00
9672;BME280;4874;43.568;27.824;2023-03-15T06:42:39;97955.34;;;9.49;100.00
9672;BME280;4874;43.568;27.824;2023-03-15T06:45:09;97924.72;;;9.71;100.00
9672;BME280;4874;43.568;27.824;2023-03-15T06:47:36;97947.13;;;10.32;100.00
9672;BME280;4874;43.568;27.824;2023-03-15T06:50:04;97932.03;;;10.41;100.00
9672;BME280;4874;43.568;27.824;2023-03-15T06:52:31;97942.94;;;10.46;100.00
9672;BME280;4874;43.568;27.824;2023-03-15T06:54:57;97936.19;;;10.27;100.00
9672;BME280;4874;43.568;27.824;2023-03-15T06:57:24;97863.94;;;10.17;100.00
9672;BME280;4874;43.568;27.824;2023-03-15T06:59:51;97926.84;;;11.10;100.00
9672;BME280;4874;43.568;27.824;2023-03-15T07:02:19;97895.91;;;10.08;100.00
9672;BME280;4874;43.568;27.824;2023-03-15T07:04:46;97922.91;;;10.35;100.00
9672;BME280;4874;43.568;27.824;2023-03-15T07:07:14;97926.66;;;11.42;100.00
9672;BME280;4874;43.568;27.824;2023-03-15T07:09:41;97930.28;;;10.72;100.00
9672;BME280;4874;43.568;27.824;2023-03-15T07:12:08;97932.59;;;10.83;100.00
9672;BME280;4874;43.568;27.824;2023-03-15T07:14:35;97948.97;;;11.33;100.00
9672;BME280;4874;43.568;27.824;2023-03-15T07:17:02;97927.03;;;11.09;100.00
9672;BME280;4874;43.568;27.824;2023-03-15T07:19:30;97943.41;;;11.20;100.00
9672;BME280;4874;43.568;27.824;2023-03-15T07:21:56;97946.66;;;10.13;100.00
9672;BME280;4874;43.568;27.824;2023-03-15T07:24:23;97946.78;;;10.43;100.00
9672;BME280;4874;43.568;27.824;2023-03-15T07:26:50;97949.88;;;10.71;100.00
9672;BME280;4874;43.568;27.824;2023-03-15T07:29:23;97951.78;;;11.32;100.00
9672;BME280;4874;43.568;27.824;2023-03-15T07:31:50;97955.84;;;10.65;100.00
9672;BME280;4874;43.568;27.824;2023-03-15T07:34:17;97965.25;;;10.92;100.00
9672;BME280;4874;43.568;27.824;2023-03-15T07:36:44;97959.09;;;10.91;100.00
9672;BME280;4874;43.568;27.824;2023-03-15T07:39:10;97955.75;;;11.05;100.00
9672;BME280;4874;43.568;27.824;2023-03-15T07:41:37;97949.88;;;11.18;100.00
9672;BME280;4874;43.568;27.824;2023-03-15T07:44:04;97946.06;;;11.51;100.00
9672;BME280;4874;43.568;27.824;2023-03-15T07:46:31;97949.47;;;12.13;100.00
9672;BME280;4874;43.568;27.824;2023-03-15T07:48:57;97952.41;;;11.72;100.00
9672;BME280;4874;43.568;27.824;2023-03-15T07:51:24;97959.41;;;11.43;100.00
9672;BME280;4874;43.568;27.824;2023-03-15T07:53:51;97956.41;;;11.99;100.00
9672;BME280;4874;43.568;27.824;2023-03-15T07:56:17;97957.59;;;11.74;100.00
9672;BME280;4874;43.568;27.824;2023-03-15T07:58:45;97935.22;;;12.28;100.00
9672;BME280;4874;43.568;27.824;2023-03-15T08:01:11;97950.06;;;12.74;100.00
9672;BME280;4874;43.568;27.824;2023-03-15T08:03:38;97906.59;;;12.30;100.00
9672;BME280;4874;43.568;27.824;2023-03-15T08:06:05;97926.22;;;11.00;100.00
9672;BME280;4874;43.568;27.824;2023-03-15T08:08:32;97945.78;;;12.14;100.00
9672;BME280;4874;43.568;27.824;2023-03-15T08:10:59;97945.81;;;11.38;100.00
9672;BME280;4874;43.568;27.824;2023-03-15T08:13:26;97943.13;;;12.14;100.00
9672;BME280;4874;43.568;27.824;2023-03-15T08:15:53;97946.78;;;11.45;100.00
9672;BME280;4874;43.568;27.824;2023-03-15T08:18:20;97917.78;;;11.58;100.00
9672;BME280;4874;43.568;27.824;2023-03-15T08:20:47;97947.63;;;11.68;100.00
9672;BME280;4874;43.568;27.824;2023-03-15T08:23:14;97916.63;;;11.52;100.00
9672;BME280;4874;43.568;27.824;2023-03-15T08:25:43;97948.41;;;11.99;100.00
9672;BME280;4874;43.568;27.824;2023-03-15T08:28:10;97941.63;;;11.97;100.00
9672;BME280;4874;43.568;27.824;2023-03-15T08:30:37;97930.38;;;11.33;100.00
9672;BME280;4874;43.568;27.824;2023-03-15T08:33:04;97911.13;;;10.46;100.00
9672;BME280;4874;43.568;27.824;2023-03-15T08:35:31;97939.28;;;11.10;100.00
9672;BME280;4874;43.568;27.824;2023-03-15T08:38:00;97939.84;;;11.36;100.00
9672;BME280;4874;43.568;27.824;2023-03-15T08:40:30;97952.19;;;10.74;100.00
9672;BME280;4874;43.568;27.824;2023-03-15T08:42:57;97948.63;;;10.98;100.00
9672;BME280;4874;43.568;27.824;2023-03-15T08:45:25;97953.41;;;11.41;100.00
9672;BME280;4874;43.568;27.824;2023-03-15T08:47:57;97947.69;;;11.21;100.00
9672;BME280;4874;43.568;27.824;2023-03-15T08:50:25;97954.88;;;11.13;100.00
9672;BME280;4874;43.568;27.824;2023-03-15T08:52:53;97887.28;;;10.85;100.00
9672;BME280;4874;43.568;27.824;2023-03-15T08:55:19;97949.72;;;10.73;100.00
9672;BME280;4874;43.568;27.824;2023-03-15T08:57:46;97945.97;;;11.90;100.00
9672;BME280;4874;43.568;27.824;2023-03-15T09:00:14;97938.44;;;11.17;100.00
9672;BME280;4874;43.568;27.824;2023-03-15T09:02:49;97936.38;;;11.27;100.00
9672;BME280;4874;43.568;27.824;2023-03-15T09:05:18;97954.38;;;11.48;100.00
9672;BME280;4874;43.568;27.824;2023-03-15T09:07:46;97938.47;;;12.53;100.00
9672;BME280;4874;43.568;27.824;2023-03-15T09:10:14;97943.97;;;12.51;100.00
9672;BME280;4874;43.568;27.824;2023-03-15T09:12:42;97950.34;;;11.52;100.00
9672;BME280;4874;43.568;27.824;2023-03-15T09:15:10;97923.78;;;11.52;100.00
9672;BME280;4874;43.568;27.824;2023-03-15T09:17:38;97921.38;;;12.10;100.00
9672;BME280;4874;43.568;27.824;2023-03-15T09:20:06;97919.06;;;11.09;100.00
9672;BME280;4874;43.568;27.824;2023-03-15T09:22:42;97921.47;;;11.49;100.00
9672;BME280;4874;43.568;27.824;2023-03-15T09:25:09;97894.53;;;11.52;100.00
9672;BME280;4874;43.568;27.824;2023-03-15T09:27:36;97923.00;;;11.13;100.00
9672;BME280;4874;43.568;27.824;2023-03-15T09:30:03;97901.28;;;11.70;100.00
9672;BME280;4874;43.568;27.824;2023-03-15T09:32:30;97909.13;;;11.87;100.00
9672;BME280;4874;43.568;27.824;2023-03-15T09:35:03;97904.38;;;11.21;100.00
9672;BME280;4874;43.568;27.824;2023-03-15T09:37:30;97912.53;;;12.18;100.00
9672;BME280;4874;43.568;27.824;2023-03-15T09:39:57;97903.75;;;11.95;100.00
9672;BME280;4874;43.568;27.824;2023-03-15T09:42:50;97906.13;;;11.59;100.00
9672;BME280;4874;43.568;27.824;2023-03-15T09:54:02;97901.13;;;13.05;100.00
9672;BME280;4874;43.568;27.824;2023-03-15T09:56:55;97888.78;;;11.71;100.00
9672;BME280;4874;43.568;27.824;2023-03-15T09:59:32;97883.69;;;12.07;100.00
9672;BME280;4874;43.568;27.824;2023-03-15T10:02:11;97882.75;;;12.00;100.00
9672;BME280;4874;43.568;27.824;2023-03-15T10:04:42;97873.72;;;12.38;100.00
9672;BME280;4874;43.568;27.824;2023-03-15T10:07:14;97876.88;;;12.70;100.00
9672;BME280;4874;43.568;27.824;2023-03-15T10:09:42;97861.28;;;12.53;100.00
9672;BME280;4874;43.568;27.824;2023-03-15T10:12:12;97859.72;;;11.92;100.00
9672;BME280;4874;43.568;27.824;2023-03-15T10:17:15;97867.88;;;12.57;100.00
9672;BME280;4874;43.568;27.824;2023-03-15T10:19:49;97871.19;;;12.73;100.00
9672;BME280;4874;43.568;27.824;2023-03-15T10:22:37;97867.38;;;12.24;99.61
9672;BME280;4874;43.568;27.824;2023-03-15T10:25:26;97859.91;;;12.42;92.56
9672;BME280;4874;43.568;27.824;2023-03-15T10:30:35;97839.50;;;12.35;100.00
9672;BME280;4874;43.568;27.824;2023-03-15T10:33:11;97825.78;;;11.94;100.00
9672;BME280;4874;43.568;27.824;2023-03-15T10:35:39;97824.13;;;11.93;100.00
9672;BME280;4874;43.568;27.824;2023-03-15T10:38:15;97846.53;;;11.99;100.00
9672;BME280;4874;43.568;27.824;2023-03-15T10:40:51;97819.50;;;11.72;100.00
9672;BME280;4874;43.568;27.824;2023-03-15T10:46:05;97843.66;;;13.17;100.00
9672;BME280;4874;43.568;27.824;2023-03-15T10:48:34;97830.63;;;12.42;100.00
9672;BME280;4874;43.568;27.824;2023-03-15T10:51:38;97831.13;;;12.09;100.00
9672;BME280;4874;43.568;27.824;2023-03-15T10:54:21;97803.06;;;12.50;100.00
9672;BME280;4874;43.568;27.824;2023-03-15T10:59:34;97785.78;;;11.73;100.00
9672;BME280;4874;43.568;27.824;2023-03-15T11:05:15;97812.16;;;12.55;100.00
9672;BME280;4874;43.568;27.824;2023-03-15T11:07:34;97811.91;;;13.36;100.00
9672;BME280;4874;43.568;27.824;2023-03-15T11:10:04;97794.50;;;12.69;100.00
9672;BME280;4874;43.568;27.824;2023-03-15T11:12:32;97811.44;;;13.12;100.00
9672;BME280;4874;43.568;27.824;2023-03-15T11:15:10;97813.47;;;12.30;100.00
9672;BME280;4874;43.568;27.824;2023-03-15T11:17:45;97788.28;;;12.04;100.00
9672;BME280;4874;43.568;27.824;2023-03-15T11:20:41;97788.78;;;11.47;100.00
9672;BME280;4874;43.568;27.824;2023-03-15T11:23:16;97779.03;;;11.62;100.00
9672;BME280;4874;43.568;27.824;2023-03-15T11:25:44;97785.72;;;11.58;100.00
9672;BME280;4874;43.568;27.824;2023-03-15T11:28:19;97813.53;;;11.48;100.00
9672;BME280;4874;43.568;27.824;2023-03-15T11:30:48;97802.84;;;11.78;100.00
9672;BME280;4874;43.568;27.824;2023-03-15T11:35:51;97803.53;;;11.72;100.00
9672;BME280;4874;43.568;27.824;2023-03-15T11:38:25;97797.88;;;11.75;100.00
9672;BME280;4874;43.568;27.824;2023-03-15T11:40:55;97796.75;;;12.22;100.00
9672;BME280;4874;43.568;27.824;2023-03-15T11:43:39;97780.97;;;12.35;100.00
9672;BME280;4874;43.568;27.824;2023-03-15T11:46:36;97781.84;;;11.83;100.00
9672;BME280;4874;43.568;27.824;2023-03-15T11:49:03;97784.28;;;13.02;100.00
9672;BME280;4874;43.568;27.824;2023-03-15T11:51:36;97792.88;;;11.95;100.00
9672;BME280;4874;43.568;27.824;2023-03-15T11:54:23;97793.25;;;12.65;100.00
9672;BME280;4874;43.568;27.824;2023-03-15T11:59:25;97780.41;;;12.10;100.00
9672;BME280;4874;43.568;27.824;2023-03-15T12:02:33;97783.34;;;12.01;100.00
9672;BME280;4874;43.568;27.824;2023-03-15T12:04:55;97758.50;;;11.34;100.00
9672;BME280;4874;43.568;27.824;2023-03-15T12:07:29;97776.53;;;11.61;100.00
9672;BME280;4874;43.568;27.824;2023-03-15T12:10:17;97778.03;;;11.63;100.00
9672;BME280;4874;43.568;27.824;2023-03-15T12:12:46;97780.53;;;12.17;100.00
9672;BME280;4874;43.568;27.824;2023-03-15T12:17:50;97776.25;;;11.56;100.00
9672;BME280;4874;43.568;27.824;2023-03-15T12:23:04;97776.16;;;11.49;100.00
9672;BME280;4874;43.568;27.824;2023-03-15T12:28:28;97782.13;;;11.74;100.00
9672;BME280;4874;43.568;27.824;2023-03-15T12:30:58;97779.84;;;11.86;100.00
9672;BME280;4874;43.568;27.824;2023-03-15T12:33:29;97776.91;;;12.68;100.00
9672;BME280;4874;43.568;27.824;2023-03-15T12:36:06;97776.53;;;11.83;100.00
9672;BME280;4874;43.568;27.824;2023-03-15T12:38:38;97778.03;;;12.30;100.00
9672;BME280;4874;43.568;27.824;2023-03-15T12:41:08;97783.59;;;12.64;100.00
9672;BME280;4874;43.568;27.824;2023-03-15T12:44:19;97794.06;;;12.07;100.00
9672;BME280;4874;43.568;27.824;2023-03-15T12:51:59;97804.09;;;12.20;100.00
9672;BME280;4874;43.568;27.824;2023-03-15T12:55:09;97813.00;;;11.75;100.00
9672;BME280;4874;43.568;27.824;2023-03-15T12:57:48;97814.63;;;12.71;100.00
9672;BME280;4874;43.568;27.824;2023-03-15T13:00:20;97803.09;;;12.35;100.00
9672;BME280;4874;43.568;27.824;2023-03-15T13:02:51;97803.31;;;11.14;100.00
9672;BME280;4874;43.568;27.824;2023-03-15T13:05:27;97804.38;;;11.50;100.00
9672;BME280;4874;43.568;27.824;2023-03-15T13:08:03;97809.81;;;11.57;100.00
9672;BME280;4874;43.568;27.824;2023-03-15T13:10:37;97805.84;;;11.30;100.00
9672;BME280;4874;43.568;27.824;2023-03-15T13:19:20;97797.53;;;11.33;100.00
9672;BME280;4874;43.568;27.824;2023-03-15T13:24:33;97751.63;;;10.72;100.00
9672;BME280;4874;43.568;27.824;2023-03-15T13:29:40;97776.16;;;11.04;100.00
9672;BME280;4874;43.568;27.824;2023-03-15T13:34:34;97765.34;;;11.51;100.00
9672;BME280;4874;43.568;27.824;2023-03-15T13:37:01;97781.66;;;11.25;100.00
9672;BME280;4874;43.568;27.824;2023-03-15T13:39:28;97785.78;;;11.28;100.00
9672;BME280;4874;43.568;27.824;2023-03-15T13:42:02;97775.16;;;11.05;100.00
9672;BME280;4874;43.568;27.824;2023-03-15T13:44:30;97766.75;;;11.61;100.00
9672;BME280;4874;43.568;27.824;2023-03-15T13:46:58;97775.50;;;10.80;100.00
9672;BME280;4874;43.568;27.824;2023-03-15T13:49:30;97774.81;;;11.08;100.00
9672;BME280;4874;43.568;27.824;2023-03-15T13:51:58;97766.91;;;11.00;100.00
9672;BME280;4874;43.568;27.824;2023-03-15T13:54:30;97769.94;;;10.89;100.00
9672;BME280;4874;43.568;27.824;2023-03-15T13:59:40;97757.19;;;11.52;100.00
9672;BME280;4874;43.568;27.824;2023-03-15T14:02:16;97768.91;;;10.98;100.00
9672;BME280;4874;43.568;27.824;2023-03-15T14:04:52;97769.56;;;11.00;100.00
9672;BME280;4874;43.568;27.824;2023-03-15T14:07:40;97767.59;;;10.94;100.00
9672;BME280;4874;43.568;27.824;2023-03-15T14:12:56;97772.06;;;10.32;100.00
9672;BME280;4874;43.568;27.824;2023-03-15T14:15:40;97756.75;;;10.81;100.00
9672;BME280;4874;43.568;27.824;2023-03-15T14:20:45;97759.59;;;10.41;100.00
9672;BME280;4874;43.568;27.824;2023-03-15T14:23:16;97757.06;;;10.09;100.00
9672;BME280;4874;43.568;27.824;2023-03-15T14:25:50;97761.38;;;10.10;100.00
9672;BME280;4874;43.568;27.824;2023-03-15T14:28:19;97755.47;;;10.30;100.00
9672;BME280;4874;43.568;27.824;2023-03-15T14:30:54;97748.94;;;10.02;100.00